createdAt,value
2018-06-27T00:00:14.944Z,96319.00
2018-06-27T00:02:45.211Z,96321.00
2018-06-27T00:05:15.643Z,96318.00
2018-06-27T00:07:46.099Z,96313.00
2018-06-27T00:10:16.434Z,96317.00
2018-06-27T00:12:46.842Z,96320.00
2018-06-27T00:15:17.074Z,96313.00
2018-06-27T00:17:47.585Z,96324.00
2018-06-27T00:20:18.087Z,96325.00
2018-06-27T00:22:48.781Z,96329.00
2018-06-27T00:25:19.513Z,96319.00
2018-06-27T00:27:50.134Z,96321.00
2018-06-27T00:30:20.795Z,96321.00
2018-06-27T00:32:51.065Z,96325.00
2018-06-27T00:35:21.991Z,96318.00
2018-06-27T00:37:52.317Z,96329.00
2018-06-27T00:40:22.643Z,96324.00
2018-06-27T00:42:52.971Z,96317.00
2018-06-27T00:45:23.339Z,96319.00
2018-06-27T00:47:53.665Z,96306.00
2018-06-27T00:50:24.148Z,96305.00
2018-06-27T00:52:54.699Z,96307.00
2018-06-27T00:55:25.119Z,96313.00
2018-06-27T00:57:55.846Z,96297.00
2018-06-27T01:00:26.549Z,96300.00
2018-06-27T01:02:56.911Z,96303.00
2018-06-27T01:05:28.068Z,96306.00
2018-06-27T01:07:58.502Z,96299.00
2018-06-27T01:10:29.138Z,96302.00
2018-06-27T01:12:59.426Z,96320.00
2018-06-27T01:15:30.099Z,96307.00
2018-06-27T01:18:00.703Z,96302.00
2018-06-27T01:20:31.367Z,96311.00
2018-06-27T01:23:01.855Z,96303.00
2018-06-27T01:25:32.791Z,96300.00
2018-06-27T01:28:03.168Z,96302.00
2018-06-27T01:30:34.008Z,96303.00
2018-06-27T01:33:04.326Z,96304.00
2018-06-27T01:35:34.772Z,96236.00
2018-06-27T01:38:05.383Z,96306.00
2018-06-27T01:40:35.996Z,96307.00
2018-06-27T01:43:06.773Z,96296.00
2018-06-27T01:45:37.427Z,96303.00
2018-06-27T01:48:08.249Z,96301.00
2018-06-27T01:50:38.691Z,96297.00
2018-06-27T01:53:09.179Z,96303.00
2018-06-27T01:55:39.476Z,96303.00
2018-06-27T01:58:09.753Z,96292.00
2018-06-27T02:00:40.099Z,96298.00
2018-06-27T02:03:10.342Z,96298.00
2018-06-27T02:05:40.730Z,96290.00
2018-06-27T02:08:10.992Z,96292.00
2018-06-27T02:10:41.310Z,96290.00
2018-06-27T02:13:11.731Z,96285.00
2018-06-27T02:15:42.043Z,96292.00
2018-06-27T02:18:12.338Z,96280.00
2018-06-27T02:20:42.618Z,96289.00
2018-06-27T02:23:13.610Z,96286.00
2018-06-27T02:25:43.954Z,96292.00
2018-06-27T02:28:14.403Z,96286.00
2018-06-27T02:30:44.668Z,96282.00
2018-06-27T02:33:20.348Z,96282.00
2018-06-27T02:35:50.705Z,96294.00
2018-06-27T02:38:20.920Z,96290.00
2018-06-27T02:40:51.204Z,96291.00
2018-06-27T02:43:21.667Z,96292.00
2018-06-27T02:45:52.035Z,96288.00
2018-06-27T02:48:22.304Z,96293.00
2018-06-27T02:50:52.561Z,96293.00
2018-06-27T02:53:22.782Z,96296.00
2018-06-27T02:55:53.064Z,96293.00
2018-06-27T02:58:23.315Z,96300.00
2018-06-27T03:00:53.643Z,96295.00
2018-06-27T03:03:24.015Z,96301.00
2018-06-27T03:05:54.467Z,96299.00
2018-06-27T03:08:24.974Z,96300.00
2018-06-27T03:10:55.490Z,96291.00
2018-06-27T03:13:25.864Z,96295.00
2018-06-27T03:15:59.073Z,96284.00
2018-06-27T03:18:29.842Z,96294.00
2018-06-27T03:21:00.283Z,96301.00
2018-06-27T03:23:31.438Z,96301.00
2018-06-27T03:26:01.859Z,96297.00
2018-06-27T03:28:32.408Z,96294.00
2018-06-27T03:31:02.934Z,96293.00
2018-06-27T03:33:33.870Z,96296.00
2018-06-27T03:36:04.151Z,96300.00
2018-06-27T03:38:34.563Z,96301.00
2018-06-27T03:41:04.915Z,96301.00
2018-06-27T03:43:35.262Z,96311.00
2018-06-27T03:46:05.543Z,96309.00
2018-06-27T03:48:36.166Z,96304.00
2018-06-27T03:51:12.358Z,96308.00
2018-06-27T03:53:48.211Z,96313.00
2018-06-27T03:56:19.414Z,96313.00
2018-06-27T03:58:49.687Z,96314.00
2018-06-27T04:01:19.923Z,96308.00
2018-06-27T04:03:50.323Z,96316.00
2018-06-27T04:06:20.623Z,96316.00
2018-06-27T04:08:50.900Z,96314.00
2018-06-27T04:11:21.168Z,96317.00
2018-06-27T04:13:51.378Z,96326.00
2018-06-27T04:16:21.630Z,96311.00
2018-06-27T04:18:51.855Z,96314.00
2018-06-27T04:21:22.095Z,96312.00
2018-06-27T04:23:52.758Z,96317.00
2018-06-27T04:26:23.026Z,96317.00
2018-06-27T04:28:53.519Z,96318.00
2018-06-27T04:31:23.809Z,96316.00
2018-06-27T04:33:54.094Z,96315.00
2018-06-27T04:36:24.482Z,96314.00
2018-06-27T04:38:54.760Z,96319.00
2018-06-27T04:41:24.977Z,96313.00
2018-06-27T04:43:55.213Z,96312.00
2018-06-27T04:46:25.844Z,96315.00
2018-06-27T04:48:56.865Z,96309.00
2018-06-27T04:51:27.843Z,96313.00
2018-06-27T04:53:58.194Z,96304.00
2018-06-27T04:56:28.819Z,96304.00
2018-06-27T04:58:59.249Z,96308.00
2018-06-27T05:01:29.737Z,96302.00
2018-06-27T05:04:00.026Z,96302.00
2018-06-27T05:06:30.305Z,96307.00
2018-06-27T05:09:00.560Z,96302.00
2018-06-27T05:11:30.913Z,96302.00
2018-06-27T05:14:01.146Z,96303.00
2018-06-27T05:16:31.402Z,96313.00
2018-06-27T05:19:01.999Z,96308.00
2018-06-27T05:21:32.802Z,96302.00
2018-06-27T05:24:03.049Z,96302.00
2018-06-27T05:26:33.270Z,96303.00
2018-06-27T05:29:03.629Z,96311.00
2018-06-27T05:31:34.353Z,96305.00
2018-06-27T05:34:04.610Z,96309.00
2018-06-27T05:36:34.863Z,96311.00
2018-06-27T05:39:08.591Z,96310.00
2018-06-27T05:41:38.810Z,96304.00
2018-06-27T05:44:09.155Z,96308.00
2018-06-27T05:46:39.378Z,96324.00
2018-06-27T05:49:09.666Z,96320.00
2018-06-27T05:51:39.991Z,96319.00
2018-06-27T05:54:10.282Z,96323.00
2018-06-27T05:56:41.014Z,96327.00
2018-06-27T05:59:11.277Z,96311.00
2018-06-27T06:01:41.818Z,96313.00
2018-06-27T06:04:12.076Z,96305.00
2018-06-27T06:06:42.498Z,96306.00
2018-06-27T06:09:13.390Z,96304.00
2018-06-27T06:11:43.672Z,96311.00
2018-06-27T06:14:13.917Z,96306.00
2018-06-27T06:16:44.195Z,96305.00
2018-06-27T06:19:14.966Z,96306.00
2018-06-27T06:21:45.239Z,96299.00
2018-06-27T06:24:15.473Z,96304.00
2018-06-27T06:26:45.755Z,96304.00
2018-06-27T06:29:15.998Z,96302.00
2018-06-27T06:31:46.251Z,96302.00
2018-06-27T06:34:16.611Z,96308.00
2018-06-27T06:36:46.847Z,96318.00
2018-06-27T06:39:17.134Z,96313.00
2018-06-27T06:41:50.704Z,96317.00
2018-06-27T06:44:20.962Z,96304.00
2018-06-27T06:46:51.209Z,96306.00
2018-06-27T06:49:21.452Z,96312.00
2018-06-27T06:51:51.679Z,96300.00
2018-06-27T06:54:22.024Z,96319.00
2018-06-27T06:56:52.251Z,96312.00
2018-06-27T06:59:22.992Z,96307.00
2018-06-27T07:01:53.248Z,96309.00
2018-06-27T07:04:23.517Z,96306.00
2018-06-27T07:06:53.779Z,96310.00
2018-06-27T07:09:24.981Z,96313.00
2018-06-27T07:11:56.718Z,96316.00
2018-06-27T07:14:27.101Z,96309.00
2018-06-27T07:16:57.569Z,96305.00
2018-06-27T07:19:28.127Z,96312.00
2018-06-27T07:21:58.839Z,96309.00
2018-06-27T07:24:29.166Z,96305.00
2018-06-27T07:26:59.779Z,96311.00
2018-06-27T07:29:30.166Z,96305.00
2018-06-27T07:32:00.390Z,96302.00
2018-06-27T07:34:30.680Z,96292.00
2018-06-27T07:37:00.885Z,96297.00
2018-06-27T07:39:31.432Z,96293.00
2018-06-27T07:42:01.654Z,96289.00
2018-06-27T07:44:32.010Z,96292.00
2018-06-27T07:47:02.243Z,96289.00
2018-06-27T07:49:32.920Z,96291.00
2018-06-27T07:52:03.910Z,96290.00
2018-06-27T07:54:38.294Z,96282.00
2018-06-27T07:57:10.192Z,96283.00
2018-06-27T07:59:40.970Z,96277.00
2018-06-27T08:02:11.219Z,96281.00
2018-06-27T08:04:41.502Z,96279.00
2018-06-27T08:07:11.702Z,96281.00
2018-06-27T08:09:41.948Z,96277.00
2018-06-27T08:12:12.267Z,96288.00
2018-06-27T08:14:42.564Z,96284.00
2018-06-27T08:17:12.774Z,96274.00
2018-06-27T08:19:43.056Z,96272.00
2018-06-27T08:22:13.307Z,96269.00
2018-06-27T08:24:43.655Z,96276.00
2018-06-27T08:27:13.871Z,96274.00
2018-06-27T08:29:44.488Z,96262.00
2018-06-27T08:32:14.720Z,96263.00
2018-06-27T08:34:45.088Z,96267.00
2018-06-27T08:37:15.291Z,96259.00
2018-06-27T08:39:45.597Z,96271.00
2018-06-27T08:42:15.871Z,96277.00
2018-06-27T08:44:46.066Z,96260.00
2018-06-27T08:47:16.327Z,96262.00
2018-06-27T08:52:51.155Z,96265.00
2018-06-27T08:55:21.378Z,96252.00
2018-06-27T08:57:51.581Z,96256.00
2018-06-27T09:00:21.803Z,96258.00
2018-06-27T09:02:51.990Z,96265.00
2018-06-27T09:05:22.322Z,96256.00
2018-06-27T09:07:52.554Z,96275.00
2018-06-27T09:10:22.761Z,96250.00
2018-06-27T09:12:52.997Z,96262.00
2018-06-27T09:15:23.251Z,96256.00
2018-06-27T09:17:53.543Z,96253.00
2018-06-27T09:20:23.851Z,96245.00
2018-06-27T09:22:54.162Z,96248.00
2018-06-27T09:25:24.385Z,96248.00
2018-06-27T09:27:54.676Z,96250.00
2018-06-27T09:30:24.959Z,96259.00
2018-06-27T09:32:55.231Z,96255.00
2018-06-27T09:35:25.518Z,96260.00
2018-06-27T09:37:55.779Z,96251.00
2018-06-27T09:40:26.060Z,96255.00
2018-06-27T09:43:04.771Z,96254.00
2018-06-27T09:45:35.257Z,96255.00
2018-06-27T09:48:05.740Z,96248.00
2018-06-27T09:50:36.173Z,96248.00
2018-06-27T09:53:06.850Z,96245.00
2018-06-27T09:55:37.064Z,96247.00
2018-06-27T09:58:07.364Z,96234.00
2018-06-27T10:00:38.558Z,96230.00
2018-06-27T10:03:10.447Z,96238.00
2018-06-27T10:05:40.871Z,96235.00
2018-06-27T10:08:11.128Z,96230.00
2018-06-27T10:10:42.175Z,96227.00
2018-06-27T10:13:12.417Z,96219.00
2018-06-27T10:15:42.618Z,96230.00
2018-06-27T10:18:12.823Z,96220.00
2018-06-27T10:20:43.285Z,96243.00
2018-06-27T10:23:13.482Z,96233.00
2018-06-27T10:25:43.702Z,96221.00
2018-06-27T10:28:13.886Z,96218.00
2018-06-27T10:30:44.270Z,96219.00
2018-06-27T10:33:15.775Z,96212.00
2018-06-27T10:35:46.205Z,96211.00
2018-06-27T10:38:16.340Z,96216.00
2018-06-27T10:40:46.590Z,96213.00
2018-06-27T10:43:16.794Z,96212.00
2018-06-27T10:45:46.987Z,96214.00
2018-06-27T10:48:17.184Z,96208.00
2018-06-27T10:50:47.426Z,96199.00
2018-06-27T10:53:23.698Z,96220.00
2018-06-27T10:56:00.315Z,96216.00
2018-06-27T10:58:30.777Z,96216.00
2018-06-27T11:01:01.498Z,96206.00
2018-06-27T11:03:31.870Z,96206.00
2018-06-27T11:06:02.479Z,96203.00
2018-06-27T11:08:32.935Z,96204.00
2018-06-27T11:11:03.183Z,96209.00
2018-06-27T11:13:37.133Z,96210.00
2018-06-27T11:16:07.368Z,96212.00
2018-06-27T11:18:37.574Z,96206.00
2018-06-27T11:21:07.837Z,96210.00
2018-06-27T11:23:39.088Z,96202.00
2018-06-27T11:26:09.648Z,96210.00
2018-06-27T11:28:39.851Z,96196.00
2018-06-27T11:31:10.118Z,96186.00
2018-06-27T11:33:41.298Z,96188.00
2018-06-27T11:36:11.618Z,96181.00
2018-06-27T11:38:42.820Z,96194.00
2018-06-27T11:41:13.354Z,96184.00
2018-06-27T11:43:43.623Z,96205.00
2018-06-27T11:46:14.018Z,96197.00
2018-06-27T11:48:44.427Z,96190.00
2018-06-27T11:51:15.113Z,96200.00
2018-06-27T11:53:45.300Z,96194.00
2018-06-27T11:56:15.913Z,96196.00
2018-06-27T11:58:46.332Z,96188.00
2018-06-27T12:01:16.522Z,96179.00
2018-06-27T12:03:47.050Z,96184.00
2018-06-27T12:06:17.411Z,96187.00
2018-06-27T12:08:48.023Z,96196.00
2018-06-27T12:11:19.098Z,96201.00
2018-06-27T12:13:50.136Z,96190.00
2018-06-27T12:16:20.799Z,96182.00
2018-06-27T12:18:51.378Z,96174.00
2018-06-27T12:21:21.799Z,96168.00
2018-06-27T12:23:52.434Z,96171.00
2018-06-27T12:26:23.067Z,95819.00
2018-06-27T12:28:55.054Z,96189.00
2018-06-27T12:31:27.028Z,96189.00
2018-06-27T12:33:57.769Z,96171.00
2018-06-27T12:36:28.196Z,96172.00
2018-06-27T12:38:58.570Z,96173.00
2018-06-27T12:41:30.035Z,96186.00
2018-06-27T12:44:00.270Z,96175.00
2018-06-27T12:46:30.667Z,96179.00
2018-06-27T12:49:00.950Z,96175.00
2018-06-27T12:51:31.307Z,96179.00
2018-06-27T12:54:03.965Z,96175.00
2018-06-27T12:56:34.232Z,96173.00
2018-06-27T12:59:05.076Z,96167.00
2018-06-27T13:01:35.822Z,96161.00
2018-06-27T13:04:06.335Z,96163.00
2018-06-27T13:06:36.838Z,96160.00
2018-06-27T13:09:11.578Z,96170.00
2018-06-27T13:11:42.835Z,96102.00
2018-06-27T13:14:14.276Z,96165.00
2018-06-27T13:16:46.304Z,96161.00
2018-06-27T13:19:18.183Z,96149.00
2018-06-27T13:21:52.550Z,96153.00
2018-06-27T13:24:22.998Z,96149.00
2018-06-27T13:26:53.559Z,96132.00
2018-06-27T13:29:23.831Z,96136.00
2018-06-27T13:31:54.084Z,96137.00
2018-06-27T13:34:24.365Z,96140.00
2018-06-27T13:36:54.599Z,96135.00
2018-06-27T13:39:24.912Z,96131.00
2018-06-27T13:41:55.142Z,96139.00
2018-06-27T13:44:25.746Z,96145.00
2018-06-27T13:46:55.958Z,96153.00
2018-06-27T13:49:27.339Z,96150.00
2018-06-27T13:51:57.583Z,96145.00
2018-06-27T13:54:27.874Z,96148.00
2018-06-27T13:56:58.199Z,96140.00
2018-06-27T13:59:28.830Z,96140.00
2018-06-27T14:01:59.258Z,96137.00
2018-06-27T14:04:29.725Z,96139.00
2018-06-27T14:06:59.963Z,96133.00
2018-06-27T14:09:30.195Z,96141.00
2018-06-27T14:12:00.442Z,96130.00
2018-06-27T14:14:30.646Z,96135.00
2018-06-27T14:17:00.959Z,96138.00
2018-06-27T14:19:31.851Z,96153.00
2018-06-27T14:22:02.486Z,96151.00
2018-06-27T14:24:32.839Z,96150.00
2018-06-27T14:27:03.393Z,96147.00
2018-06-27T14:29:34.219Z,96141.00
2018-06-27T14:32:05.557Z,96130.00
2018-06-27T14:34:36.699Z,96133.00
2018-06-27T14:37:07.885Z,96133.00
2018-06-27T14:39:39.130Z,96129.00
2018-06-27T14:42:09.395Z,96120.00
2018-06-27T14:44:41.570Z,96127.00
2018-06-27T14:47:13.376Z,96130.00
2018-06-27T14:49:45.593Z,96118.00
2018-06-27T14:52:17.150Z,96121.00
2018-06-27T14:54:49.467Z,96119.00
2018-06-27T14:57:20.388Z,96133.00
2018-06-27T14:59:50.653Z,96113.00
2018-06-27T15:02:21.830Z,96115.00
2018-06-27T15:04:52.093Z,96124.00
2018-06-27T15:07:22.426Z,96120.00
2018-06-27T15:09:52.754Z,96120.00
2018-06-27T15:12:23.207Z,96120.00
2018-06-27T15:14:53.923Z,96122.00
2018-06-27T15:17:25.387Z,96117.00
2018-06-27T15:19:55.978Z,96112.00
2018-06-27T15:22:26.513Z,96113.00
2018-06-27T15:24:57.255Z,96117.00
2018-06-27T15:27:27.927Z,96115.00
2018-06-27T15:29:58.973Z,96118.00
2018-06-27T15:32:29.226Z,96120.00
2018-06-27T15:34:59.875Z,96131.00
2018-06-27T15:37:30.634Z,96122.00
2018-06-27T15:40:01.632Z,96130.00
2018-06-27T15:42:31.891Z,96124.00
2018-06-27T15:45:02.761Z,96126.00
2018-06-27T15:47:33.095Z,96130.00
2018-06-27T15:50:03.483Z,96117.00
2018-06-27T15:52:34.301Z,96121.00
2018-06-27T15:55:04.551Z,96130.00
2018-06-27T15:57:35.061Z,96123.00
2018-06-27T16:00:05.639Z,96119.00
2018-06-27T16:02:36.018Z,96121.00
2018-06-27T16:05:06.764Z,96118.00
2018-06-27T16:07:39.286Z,96118.00
2018-06-27T16:10:11.320Z,96114.00
2018-06-27T16:12:43.487Z,96113.00
2018-06-27T16:15:15.362Z,96119.00
2018-06-27T16:17:47.969Z,96111.00
2018-06-27T16:20:20.942Z,96103.00
2018-06-27T16:22:54.119Z,96101.00
2018-06-27T16:25:26.713Z,96100.00
2018-06-27T16:27:58.788Z,96100.00
2018-06-27T16:30:33.459Z,96101.00
2018-06-27T16:33:06.085Z,96093.00
2018-06-27T16:35:40.071Z,96094.00
2018-06-27T16:38:12.712Z,96100.00
2018-06-27T16:40:54.691Z,96102.00
2018-06-27T16:43:27.694Z,96091.00
2018-06-27T16:46:01.538Z,96097.00
2018-06-27T16:48:36.164Z,96100.00
2018-06-27T16:51:09.794Z,96103.00
2018-06-27T16:53:44.983Z,96113.00
2018-06-27T16:56:17.597Z,96111.00
2018-06-27T16:58:51.566Z,96116.00
2018-06-27T17:01:23.691Z,96126.00
2018-06-27T17:03:55.850Z,96128.00
2018-06-27T17:06:27.793Z,96127.00
2018-06-27T17:09:00.181Z,96126.00
2018-06-27T17:11:32.719Z,96137.00
2018-06-27T17:14:05.333Z,96138.00
2018-06-27T17:16:38.273Z,96138.00
2018-06-27T17:19:10.426Z,96137.00
2018-06-27T17:21:42.404Z,96140.00
2018-06-27T17:24:14.444Z,96137.00
2018-06-27T17:26:46.328Z,96168.00
2018-06-27T17:29:16.943Z,96145.00
2018-06-27T17:31:47.276Z,96146.00
2018-06-27T17:34:17.547Z,96158.00
2018-06-27T17:36:48.146Z,96148.00
2018-06-27T17:39:18.471Z,96147.00
2018-06-27T17:41:49.035Z,96152.00
2018-06-27T17:44:20.543Z,96161.00
2018-06-27T17:46:51.242Z,96160.00
2018-06-27T17:49:23.491Z,96165.00
2018-06-27T17:51:58.216Z,96163.00
2018-06-27T17:54:30.504Z,96167.00
2018-06-27T17:57:02.603Z,96167.00
2018-06-27T17:59:33.570Z,96164.00
2018-06-27T18:02:05.181Z,96163.00
2018-06-27T18:04:37.219Z,96165.00
2018-06-27T18:07:07.975Z,96166.00
2018-06-27T18:13:13.888Z,96165.00
2018-06-27T18:15:49.140Z,96162.00
2018-06-27T18:18:30.873Z,96161.00
2018-06-27T18:21:02.644Z,96162.00
2018-06-27T18:23:33.546Z,96161.00
2018-06-27T18:26:03.838Z,96159.00
2018-06-27T18:28:35.966Z,96162.00
2018-06-27T18:31:07.407Z,96170.00
2018-06-27T18:33:37.755Z,96167.00
2018-06-27T18:36:09.895Z,96171.00
2018-06-27T18:38:40.404Z,96170.00
2018-06-27T18:41:10.660Z,96172.00
2018-06-27T18:43:42.100Z,96182.00
2018-06-27T18:46:14.063Z,96168.00
2018-06-27T18:48:45.604Z,96172.00
2018-06-27T18:51:17.059Z,96175.00
2018-06-27T18:53:49.361Z,96175.00
2018-06-27T18:56:29.515Z,96171.00
2018-06-27T18:59:01.957Z,96184.00
2018-06-27T19:01:34.604Z,96194.00
2018-06-27T19:04:06.611Z,96188.00
2018-06-27T19:06:41.689Z,96202.00
2018-06-27T19:09:13.275Z,96200.00
2018-06-27T19:11:44.260Z,96202.00
2018-06-27T19:14:15.161Z,96200.00
2018-06-27T19:16:54.052Z,96198.00
2018-06-27T19:19:26.005Z,96205.00
2018-06-27T19:22:02.393Z,96219.00
2018-06-27T19:24:34.087Z,96219.00
2018-06-27T19:27:06.602Z,96211.00
2018-06-27T19:29:37.028Z,96211.00
2018-06-27T19:32:13.575Z,96211.00
2018-06-27T19:34:44.067Z,96216.00
2018-06-27T19:37:14.531Z,96215.00
2018-06-27T19:39:45.406Z,96220.00
2018-06-27T19:42:15.699Z,96219.00
2018-06-27T19:44:46.265Z,96223.00
2018-06-27T19:47:16.750Z,96230.00
2018-06-27T19:49:47.057Z,96239.00
2018-06-27T19:52:17.358Z,96239.00
2018-06-27T19:54:47.698Z,96241.00
2018-06-27T19:57:20.112Z,96242.00
2018-06-27T19:59:50.395Z,96238.00
2018-06-27T20:02:21.047Z,96240.00
2018-06-27T20:04:53.138Z,96244.00
2018-06-27T20:07:25.299Z,96250.00
2018-06-27T20:09:56.404Z,96244.00
2018-06-27T20:12:27.193Z,96248.00
2018-06-27T20:14:57.609Z,96252.00
2018-06-27T20:17:28.402Z,96252.00
2018-06-27T20:19:58.663Z,96253.00
2018-06-27T20:22:28.911Z,96254.00
2018-06-27T20:24:59.244Z,96249.00
2018-06-27T20:27:29.939Z,96248.00
2018-06-27T20:30:00.173Z,96266.00
2018-06-27T20:32:30.670Z,96253.00
2018-06-27T20:35:00.883Z,96249.00
2018-06-27T20:37:31.182Z,96252.00
2018-06-27T20:40:03.490Z,96264.00
2018-06-27T20:42:34.211Z,96254.00
2018-06-27T20:45:05.562Z,96254.00
2018-06-27T20:47:39.404Z,96257.00
2018-06-27T20:50:10.643Z,96257.00
2018-06-27T20:52:41.020Z,96257.00
2018-06-27T20:55:11.275Z,96252.00
2018-06-27T20:57:43.370Z,96260.00
2018-06-27T21:00:15.339Z,96253.00
2018-06-27T21:02:46.331Z,96257.00
2018-06-27T21:05:17.550Z,96254.00
2018-06-27T21:07:48.965Z,96254.00
2018-06-27T21:10:19.449Z,96255.00
2018-06-27T21:12:52.392Z,96252.00
2018-06-27T21:15:25.633Z,96255.00
2018-06-27T21:17:57.024Z,96248.00
2018-06-27T21:20:28.075Z,96259.00
2018-06-27T21:23:02.262Z,96257.00
2018-06-27T21:25:33.591Z,96262.00
2018-06-27T21:28:04.774Z,96261.00
2018-06-27T21:30:36.336Z,96266.00
2018-06-27T21:33:08.497Z,96267.00
2018-06-27T21:35:40.189Z,96270.00
2018-06-27T21:38:11.901Z,96262.00
2018-06-27T21:40:42.796Z,96272.00
2018-06-27T21:43:13.754Z,96266.00
2018-06-27T21:45:44.273Z,96264.00
2018-06-27T21:48:15.904Z,96264.00
2018-06-27T21:50:50.396Z,96269.00
2018-06-27T21:53:21.145Z,96276.00
2018-06-27T21:55:52.510Z,96279.00
2018-06-27T21:58:23.468Z,96275.00
2018-06-27T22:00:54.688Z,96279.00
2018-06-27T22:03:25.777Z,96274.00
2018-06-27T22:05:57.813Z,96271.00
2018-06-27T22:08:28.887Z,96268.00
2018-06-27T22:10:59.218Z,96293.00
2018-06-27T22:13:30.281Z,96284.00
2018-06-27T22:16:00.906Z,96287.00
2018-06-27T22:18:35.847Z,96283.00
2018-06-27T22:23:53.279Z,96272.00
2018-06-27T22:26:23.496Z,96273.00
2018-06-27T22:28:54.240Z,96271.00
2018-06-27T22:31:24.490Z,96271.00
2018-06-27T22:33:54.919Z,96265.00
2018-06-27T22:36:25.879Z,96273.00
2018-06-27T22:39:02.094Z,96263.00
2018-06-27T22:41:35.069Z,96259.00
2018-06-27T22:44:05.369Z,96263.00
2018-06-27T22:46:36.084Z,96257.00
2018-06-27T22:49:06.426Z,96254.00
2018-06-27T22:51:36.351Z,96256.00
2018-06-27T22:54:08.083Z,96258.00
2018-06-27T22:56:38.306Z,96263.00
2018-06-27T22:59:08.535Z,96256.00
2018-06-27T23:01:38.850Z,96256.00
2018-06-27T23:04:09.058Z,96256.00
2018-06-27T23:06:39.344Z,96258.00
2018-06-27T23:09:11.464Z,96255.00
2018-06-27T23:11:41.707Z,96257.00
2018-06-27T23:14:11.919Z,96255.00
2018-06-27T23:16:42.195Z,96252.00
2018-06-27T23:19:12.399Z,96256.00
2018-06-27T23:21:42.588Z,96253.00
2018-06-27T23:24:12.769Z,96256.00
2018-06-27T23:26:42.982Z,96266.00
2018-06-27T23:29:13.178Z,96254.00
2018-06-27T23:31:45.018Z,96255.00
2018-06-27T23:34:15.233Z,96257.00
2018-06-27T23:36:45.583Z,96255.00
2018-06-27T23:39:16.103Z,96256.00
2018-06-27T23:41:46.416Z,96257.00
2018-06-27T23:44:16.574Z,96257.00
2018-06-27T23:46:46.780Z,96250.00
2018-06-27T23:49:16.959Z,96247.00
2018-06-27T23:51:48.567Z,96244.00
2018-06-27T23:54:18.767Z,96254.00
2018-06-27T23:56:50.069Z,96242.00
2018-06-27T23:59:20.268Z,96240.00
